Time;durP1;ratioP1;P1;durP2;ratioP2;P2;SDS_P1;SDS_P2;PMS_P1;PMS_P2;Temp;Humidity;BMP_temperature;BMP_pressure;BME280_temperature;BME280_humidity;BME280_pressure;Samples;Min_cycle;Max_cycle;Signal;HPM_P1;HPM_P2
2021/11/15 00:01:01;;;;;;;41.88;27.05;;;;;;;8.41;66.05;101776.37;1681171;82;21106;-59
2021/11/15 00:03:29;;;;;;;39.25;25.05;;;;;;;8.40;65.93;101777.29;1727529;81;21102;-59
2021/11/15 00:05:55;;;;;;;40.98;25.48;;;;;;;8.38;65.66;101776.89;1726483;80;21122;-59
2021/11/15 00:08:21;;;;;;;41.70;25.27;;;;;;;8.35;65.56;101773.56;1730826;82;21241;-59
2021/11/15 00:10:49;;;;;;;41.60;25.97;;;;;;;8.32;65.53;101777.65;1693847;82;21110;-59
2021/11/15 00:13:16;;;;;;;39.45;23.52;;;;;;;8.30;65.45;101765.08;1673621;83;21106;-59
2021/11/15 00:15:44;;;;;;;39.55;26.85;;;;;;;8.28;65.30;101761.69;1668780;83;21914;-59
2021/11/15 00:18:13;;;;;;;38.70;24.50;;;;;;;8.26;65.27;101763.55;1733328;82;21646;-59
2021/11/15 00:20:41;;;;;;;36.28;23.20;;;;;;;8.27;65.16;101767.41;1732764;81;21118;-59
2021/11/15 00:23:07;;;;;;;38.20;24.90;;;;;;;8.34;65.01;101764.86;1701435;80;21806;-59
2021/11/15 00:25:34;;;;;;;35.78;23.45;;;;;;;8.41;64.92;101771.13;1732910;82;21027;-59
2021/11/15 00:28:01;;;;;;;39.95;25.40;;;;;;;8.42;64.88;101764.47;1728139;82;21102;-59
2021/11/15 00:30:27;;;;;;;37.53;24.27;;;;;;;8.41;65.06;101771.13;1727782;82;21110;-60
2021/11/15 00:32:54;;;;;;;43.65;26.85;;;;;;;8.40;65.09;101766.80;1702978;82;21867;-59
2021/11/15 00:35:21;;;;;;;43.25;28.32;;;;;;;8.36;65.08;101760.38;1725430;81;21071;-58
2021/11/15 00:37:47;;;;;;;43.52;28.92;;;;;;;8.33;65.10;101769.70;1730082;82;21000;-59
2021/11/15 00:40:15;;;;;;;51.42;29.12;;;;;;;8.30;65.23;101775.56;1728692;82;21049;-59
2021/11/15 00:42:41;;;;;;;39.48;27.55;;;;;;;8.27;65.24;101779.20;1707969;81;21015;-59
2021/11/15 00:45:10;;;;;;;41.28;27.20;;;;;;;8.24;65.40;101774.54;1727346;81;21106;-59
2021/11/15 00:47:37;;;;;;;48.52;29.35;;;;;;;8.17;65.35;101769.61;1728291;82;20992;-59
2021/11/15 00:50:05;;;;;;;43.20;25.88;;;;;;;8.17;65.19;101770.08;1729239;82;21114;-59
2021/11/15 00:52:32;;;;;;;44.42;26.95;;;;;;;8.19;65.16;101770.38;1725052;82;21055;-59
2021/11/15 00:54:59;;;;;;;40.88;27.85;;;;;;;8.22;65.14;101774.64;1713889;82;21008;-59
2021/11/15 00:57:25;;;;;;;48.40;29.50;;;;;;;8.21;65.32;101771.63;1730057;80;21099;-59
2021/11/15 00:59:51;;;;;;;46.37;30.77;;;;;;;8.19;65.58;101762.98;1731737;82;21059;-59
2021/11/15 01:02:19;;;;;;;51.33;30.32;;;;;;;8.21;65.71;101752.42;1728670;82;21728;-59
2021/11/15 01:04:46;;;;;;;52.48;32.58;;;;;;;8.20;65.57;101755.48;1709909;82;21122;-59
2021/11/15 01:07:12;;;;;;;52.20;30.48;;;;;;;8.16;65.54;101756.57;1708281;82;21072;-59
2021/11/15 01:09:38;;;;;;;55.30;32.35;;;;;;;8.11;65.72;101767.74;1727317;82;22478;-58
2021/11/15 01:12:07;;;;;;;47.60;32.67;;;;;;;8.07;65.91;101767.48;1709569;82;21490;-59
2021/11/15 01:14:34;;;;;;;54.55;34.35;;;;;;;8.03;65.96;101769.41;1729905;82;22256;-59
2021/11/15 01:17:02;;;;;;;52.53;31.87;;;;;;;7.97;66.07;101766.63;1706436;82;21071;-59
2021/11/15 01:19:28;;;;;;;46.33;31.20;;;;;;;7.98;66.10;101776.20;1724525;81;21111;-58
2021/11/15 01:21:55;;;;;;;47.48;28.90;;;;;;;8.02;65.98;101778.20;1728063;80;21124;-58
2021/11/15 01:24:21;;;;;;;49.83;30.55;;;;;;;8.05;66.02;101772.80;1724634;80;21134;-58
2021/11/15 01:26:47;;;;;;;47.60;30.70;;;;;;;8.07;66.10;101781.90;1729691;82;21086;-58
2021/11/15 01:29:15;;;;;;;50.25;31.15;;;;;;;8.02;66.25;101782.14;1729765;82;21071;-59
2021/11/15 01:31:41;;;;;;;50.23;31.15;;;;;;;7.95;66.34;101788.12;1737901;82;21125;-59
2021/11/15 01:34:07;;;;;;;52.08;30.15;;;;;;;7.84;66.49;101800.03;1731856;82;21656;-59
2021/11/15 01:36:34;;;;;;;48.95;30.30;;;;;;;7.73;66.80;101805.73;1734488;82;21648;-58
2021/11/15 01:39:01;;;;;;;48.92;29.77;;;;;;;7.63;66.99;101793.07;1737018;82;21077;-58
2021/11/15 01:41:28;;;;;;;46.68;27.90;;;;;;;7.56;67.08;101799.48;1736196;82;21108;-58
2021/11/15 01:43:54;;;;;;;46.95;27.85;;;;;;;7.53;67.03;101801.39;1733613;81;21058;-59
2021/11/15 01:46:21;;;;;;;43.73;27.67;;;;;;;7.54;67.06;101796.09;1731466;82;21073;-58
2021/11/15 01:48:47;;;;;;;46.18;29.25;;;;;;;7.57;67.12;101799.05;1701967;82;21117;-59
2021/11/15 01:51:14;;;;;;;43.25;28.67;;;;;;;7.57;67.15;101801.20;1729788;81;21002;-59
2021/11/15 01:53:41;;;;;;;42.55;29.30;;;;;;;7.52;67.24;101800.55;1742166;80;21566;-59
2021/11/15 01:56:07;;;;;;;44.65;28.10;;;;;;;7.48;67.40;101802.94;1729954;80;21128;-59
2021/11/15 01:58:34;;;;;;;43.78;29.15;;;;;;;7.45;67.47;101804.38;1709301;82;21925;-58
2021/11/15 02:01:01;;;;;;;50.85;29.63;;;;;;;7.46;67.58;101794.73;1726597;82;20996;-59
2021/11/15 02:03:28;;;;;;;42.75;29.42;;;;;;;7.50;67.59;101792.36;1711100;82;21381;-58
2021/11/15 02:05:56;;;;;;;46.42;30.48;;;;;;;7.52;67.49;101795.31;1734038;82;21065;-59
2021/11/15 02:08:23;;;;;;;44.55;28.15;;;;;;;7.50;67.45;101798.47;1736976;82;21078;-58
2021/11/15 02:10:50;;;;;;;49.20;31.10;;;;;;;7.54;67.44;101802.64;1703386;82;21494;-60
2021/11/15 02:13:18;;;;;;;44.58;27.60;;;;;;;7.65;67.29;101802.61;1706829;82;21054;-59
2021/11/15 02:15:45;;;;;;;45.80;26.73;;;;;;;7.74;67.10;101800.91;1738166;82;21011;-59
2021/11/15 02:18:11;;;;;;;45.20;27.00;;;;;;;7.78;67.00;101794.59;1730819;80;21059;-59
2021/11/15 02:20:57;;;;;;;46.63;29.32;;;;;;;7.79;67.13;101800.23;1710299;80;21081;-59
2021/11/15 02:23:26;;;;;;;46.53;29.32;;;;;;;7.79;67.10;101799.77;1700380;82;21022;-59
2021/11/15 02:25:54;;;;;;;44.88;28.87;;;;;;;7.80;66.94;101800.16;1699921;82;21119;-59
2021/11/15 02:28:36;;;;;;;49.30;31.15;;;;;;;7.79;66.86;101796.30;1733206;82;21574;-59
2021/11/15 02:31:04;;;;;;;40.80;28.27;;;;;;;7.75;66.82;101789.05;1703969;82;21508;-59
2021/11/15 02:33:31;;;;;;;43.20;28.75;;;;;;;7.72;66.94;101798.34;1736396;80;22316;-59
2021/11/15 02:35:59;;;;;;;39.78;26.87;;;;;;;7.71;66.92;101797.11;1736589;82;21122;-60
2021/11/15 02:38:26;;;;;;;40.80;27.70;;;;;;;7.73;66.87;101802.69;1701126;83;21063;-59
2021/11/15 02:40:53;;;;;;;42.20;27.85;;;;;;;7.80;66.74;101808.47;1679411;84;22611;-59
2021/11/15 02:43:19;;;;;;;43.02;28.55;;;;;;;7.87;66.71;101818.20;1690124;83;21143;-59
2021/11/15 02:45:46;;;;;;;42.10;28.85;;;;;;;7.92;66.72;101822.34;1685227;83;21153;-60
2021/11/15 02:48:13;;;;;;;46.90;30.00;;;;;;;7.95;66.96;101823.95;1742304;81;21183;-59
2021/11/15 02:50:40;;;;;;;41.02;28.07;;;;;;;7.98;67.09;101834.30;1739473;82;21525;-60
2021/11/15 02:53:08;;;;;;;47.15;30.77;;;;;;;7.98;66.88;101839.11;1741386;80;21309;-60
2021/11/15 02:55:35;;;;;;;43.63;29.87;;;;;;;7.95;66.81;101845.80;1736584;80;21074;-60
2021/11/15 02:58:04;;;;;;;46.02;29.50;;;;;;;7.92;66.87;101847.23;1712710;82;21066;-59
2021/11/15 03:00:42;;;;;;;47.53;30.48;;;;;;;7.90;66.83;101858.70;1737390;82;21122;-60
2021/11/15 03:03:09;;;;;;;45.52;29.30;;;;;;;7.85;66.71;101858.92;1709769;82;21170;-59
2021/11/15 03:05:40;;;;;;;46.50;28.98;;;;;;;7.83;66.61;101856.81;1699974;83;21502;-59
2021/11/15 03:08:07;;;;;;;44.03;28.67;;;;;;;7.86;66.51;101854.05;1658360;84;21428;-59
2021/11/15 03:10:34;;;;;;;46.55;27.73;;;;;;;7.90;66.58;101854.77;1689230;83;21566;-59
2021/11/15 03:13:01;;;;;;;45.40;28.80;;;;;;;7.90;66.64;101863.50;1691107;83;21230;-59
2021/11/15 03:15:34;;;;;;;44.90;28.65;;;;;;;7.84;66.78;101860.30;1734445;82;21029;-60
2021/11/15 03:18:06;;;;;;;45.55;29.92;;;;;;;7.81;66.92;101856.87;1674975;83;21582;-59
2021/11/15 03:20:38;;;;;;;44.63;27.73;;;;;;;7.78;67.03;101857.48;1702994;83;21106;-59
2021/11/15 03:23:11;;;;;;;50.90;29.25;;;;;;;7.76;66.99;101857.55;1688380;83;21094;-59
2021/11/15 03:25:38;;;;;;;44.50;28.38;;;;;;;7.72;67.00;101855.16;1732348;82;21151;-59
2021/11/15 03:28:07;;;;;;;49.15;27.32;;;;;;;7.67;67.07;101855.34;1734497;80;21088;-59
2021/11/15 03:30:34;;;;;;;39.53;26.05;;;;;;;7.65;67.13;101866.80;1725990;82;21140;-59
2021/11/15 03:33:01;;;;;;;43.15;27.65;;;;;;;7.66;67.03;101861.96;1696155;82;21074;-58
2021/11/15 03:35:27;;;;;;;45.95;28.52;;;;;;;7.73;66.91;101869.94;1702257;83;21434;-59
2021/11/15 03:37:53;;;;;;;42.15;27.32;;;;;;;7.79;66.79;101870.98;1700980;82;21145;-59
2021/11/15 03:40:24;;;;;;;44.58;29.23;;;;;;;7.83;66.82;101862.52;1697739;82;20999;-59
2021/11/15 03:42:54;;;;;;;51.92;29.30;;;;;;;7.84;66.83;101870.31;1646003;85;21520;-59
2021/11/15 03:45:21;;;;;;;48.80;28.12;;;;;;;7.84;66.89;101865.08;1632931;86;21169;-59
2021/11/15 03:47:47;;;;;;;44.33;27.67;;;;;;;7.85;66.77;101866.79;1596331;87;21664;-60
2021/11/15 03:50:14;;;;;;;43.85;29.95;;;;;;;7.83;66.57;101873.84;1694080;82;21128;-60
2021/11/15 03:52:42;;;;;;;46.35;27.93;;;;;;;7.75;66.47;101873.33;1692115;82;21075;-60
2021/11/15 03:55:11;;;;;;;43.48;28.67;;;;;;;7.67;66.52;101887.25;1663851;84;21172;-60
2021/11/15 03:57:38;;;;;;;45.52;28.55;;;;;;;7.59;66.72;101879.25;1687834;82;22282;-59
2021/11/15 04:00:08;;;;;;;44.27;28.75;;;;;;;7.60;66.82;101879.66;1686234;82;21100;-59
2021/11/15 04:02:38;;;;;;;47.62;29.90;;;;;;;7.60;67.01;101884.05;1691981;82;21076;-60
2021/11/15 04:05:08;;;;;;;46.58;30.40;;;;;;;7.60;67.19;101887.52;1689557;82;21041;-59
2021/11/15 04:07:43;;;;;;;52.03;31.52;;;;;;;7.56;67.31;101887.23;1689272;82;21883;-60
2021/11/15 04:10:23;;;;;;;45.30;31.42;;;;;;;7.50;67.48;101891.45;1699303;82;21062;-59
2021/11/15 04:12:49;;;;;;;51.92;32.67;;;;;;;7.46;67.51;101895.10;1681116;82;21081;-60
2021/11/15 04:15:16;;;;;;;54.88;32.85;;;;;;;7.36;67.44;101899.91;1692157;82;21066;-62
2021/11/15 04:17:43;;;;;;;46.83;29.72;;;;;;;7.25;67.68;101906.05;1663331;82;21030;-62
2021/11/15 04:20:12;;;;;;;48.73;31.62;;;;;;;7.21;67.88;101907.94;1693610;82;21494;-61
2021/11/15 04:22:38;;;;;;;48.13;31.00;;;;;;;7.29;67.91;101912.84;1684539;82;21478;-62
2021/11/15 04:25:06;;;;;;;48.30;32.53;;;;;;;7.35;67.80;101902.59;1692293;82;21022;-62
2021/11/15 04:27:32;;;;;;;52.80;29.77;;;;;;;7.32;67.72;101910.56;1688039;82;21112;-61
2021/11/15 04:29:59;;;;;;;50.95;33.63;;;;;;;7.24;67.79;101923.50;1690657;82;21639;-61
2021/11/15 04:32:26;;;;;;;51.45;32.42;;;;;;;7.15;67.95;101927.81;1735577;82;21091;-61
2021/11/15 04:34:52;;;;;;;77.45;44.45;;;;;;;7.09;68.17;101924.59;1738757;82;21150;-61
2021/11/15 04:37:18;;;;;;;68.52;38.02;;;;;;;7.03;68.32;101928.33;1743449;80;21879;-61
2021/11/15 04:39:44;;;;;;;76.50;44.05;;;;;;;7.01;68.42;101926.20;1743055;82;21129;-58
2021/11/15 04:42:11;;;;;;;56.45;36.25;;;;;;;7.04;68.60;101932.63;1738472;82;21058;-61
2021/11/15 04:46:35;;;;;;;52.45;32.80;;;;;;;7.08;68.74;101934.23;1869183;75;22451;-66
2021/11/15 04:49:01;;;;;;;53.90;32.23;;;;;;;6.99;68.82;101932.84;1844176;75;20978;-64
2021/11/15 04:51:28;;;;;;;45.78;32.17;;;;;;;6.98;68.84;101931.59;1841385;76;21468;-63
2021/11/15 04:53:54;;;;;;;94.97;52.40;;;;;;;6.96;68.85;101939.50;1801754;78;21702;-68
2021/11/15 04:56:21;;;;;;;107.65;55.90;;;;;;;6.92;68.91;101945.75;1783221;78;20986;-66
2021/11/15 04:58:49;;;;;;;80.72;45.75;;;;;;;6.94;69.12;101947.00;1804548;77;20888;-64
2021/11/15 05:01:15;;;;;;;75.28;41.85;;;;;;;7.06;69.32;101947.38;1781377;78;20942;-65
2021/11/15 05:03:41;;;;;;;54.25;31.93;;;;;;;7.16;69.05;101949.60;1777275;78;21086;-64
2021/11/15 05:06:09;;;;;;;46.48;29.63;;;;;;;7.21;68.93;101948.52;1806446;77;20931;-66
2021/11/15 05:08:36;;;;;;;47.78;29.00;;;;;;;7.25;68.70;101943.54;1742941;80;21689;-66
2021/11/15 05:11:02;;;;;;;52.30;30.80;;;;;;;7.29;68.26;101955.20;1786567;78;21086;-65
2021/11/15 05:13:29;;;;;;;47.60;30.12;;;;;;;7.28;68.27;101960.03;1771257;78;21050;-66
2021/11/15 05:15:55;;;;;;;46.70;27.40;;;;;;;7.30;68.20;101965.61;1777424;78;21591;-66
2021/11/15 05:18:22;;;;;;;50.35;30.80;;;;;;;7.31;68.09;101973.00;1777023;78;21072;-66
2021/11/15 05:20:48;;;;;;;46.20;27.87;;;;;;;7.32;67.98;101978.18;1769485;78;22365;-63
2021/11/15 05:23:15;;;;;;;40.50;25.15;;;;;;;7.41;67.79;101976.51;1800785;78;21062;-62
2021/11/15 05:25:42;;;;;;;48.87;28.77;;;;;;;7.50;67.48;101982.25;1801792;78;21084;-59
2021/11/15 05:28:10;;;;;;;39.35;25.10;;;;;;;7.53;67.45;101974.27;1809141;77;21151;-59
2021/11/15 05:30:36;;;;;;;42.08;27.17;;;;;;;7.56;67.31;101984.62;1778466;78;21038;-61
2021/11/15 05:33:04;;;;;;;44.38;27.87;;;;;;;7.55;67.15;101994.73;1808373;77;21049;-64
2021/11/15 05:35:30;;;;;;;41.83;27.15;;;;;;;7.53;67.01;101999.16;1778284;78;21124;-63
2021/11/15 05:37:57;;;;;;;42.78;26.17;;;;;;;7.53;66.90;102006.58;1800468;78;21026;-63
2021/11/15 05:40:23;;;;;;;40.88;24.82;;;;;;;7.49;66.79;102022.01;1789318;78;21147;-63
2021/11/15 05:42:50;;;;;;;40.15;24.45;;;;;;;7.39;66.76;102025.92;1752425;78;22149;-64
2021/11/15 05:45:16;;;;;;;34.10;22.45;;;;;;;7.38;66.79;102018.97;1815032;77;20935;-65
2021/11/15 05:47:43;;;;;;;30.68;20.57;;;;;;;7.44;66.55;102022.66;1794992;78;21116;-64
2021/11/15 05:50:10;;;;;;;33.67;23.35;;;;;;;7.46;66.55;102026.06;1812692;77;21690;-64
2021/11/15 05:52:40;;;;;;;36.88;23.62;;;;;;;7.43;66.44;102031.41;1810869;77;21052;-64
2021/11/15 05:55:06;;;;;;;37.75;23.20;;;;;;;7.38;66.62;102033.37;1756573;79;20980;-64
2021/11/15 05:57:32;;;;;;;34.95;22.17;;;;;;;7.36;66.69;102033.46;1813964;77;21045;-63
2021/11/15 05:59:58;;;;;;;36.42;22.58;;;;;;;7.33;66.56;102044.48;1788167;78;21098;-63
2021/11/15 06:02:25;;;;;;;37.35;22.58;;;;;;;7.29;66.69;102036.38;1755346;78;21101;-63
2021/11/15 06:04:51;;;;;;;32.70;21.07;;;;;;;7.28;66.80;102041.20;1789871;78;21118;-64
2021/11/15 06:07:17;;;;;;;34.67;21.27;;;;;;;7.29;66.66;102049.46;1775001;80;21559;-65
2021/11/15 06:09:44;;;;;;;32.85;20.65;;;;;;;7.34;66.47;102048.82;1794475;78;21575;-65
2021/11/15 06:12:11;;;;;;;33.88;21.02;;;;;;;7.38;66.57;102052.58;1781380;78;21003;-64
2021/11/15 06:14:38;;;;;;;32.38;21.35;;;;;;;7.39;66.36;102051.64;1813183;78;20999;-64
2021/11/15 06:17:04;;;;;;;33.90;21.42;;;;;;;7.34;66.43;102051.44;1764249;80;21002;-63
2021/11/15 06:19:31;;;;;;;39.80;21.73;;;;;;;7.28;66.54;102052.98;1812204;77;21135;-70
2021/11/15 06:21:58;;;;;;;35.15;21.90;;;;;;;7.23;66.61;102061.89;1802040;78;21511;-73
2021/11/15 06:24:24;;;;;;;34.13;20.17;;;;;;;7.16;66.65;102060.86;1781945;78;21108;-69
2021/11/15 06:26:51;;;;;;;36.20;22.58;;;;;;;7.10;66.79;102064.58;1757194;80;21584;-68
2021/11/15 06:29:17;;;;;;;34.60;20.35;;;;;;;7.08;66.97;102067.72;1808155;77;21100;-67
2021/11/15 06:31:44;;;;;;;34.98;21.77;;;;;;;7.14;66.91;102066.16;1783235;78;21089;-65
2021/11/15 06:34:10;;;;;;;28.90;19.25;;;;;;;7.15;67.00;102065.25;1782259;79;22126;-66
2021/11/15 06:36:36;;;;;;;35.60;21.05;;;;;;;7.13;67.03;102064.47;1804719;77;21062;-64
2021/11/15 06:39:03;;;;;;;32.80;21.37;;;;;;;7.12;67.18;102070.61;1816758;77;20957;-65
2021/11/15 06:41:29;;;;;;;32.25;20.35;;;;;;;7.12;67.12;102073.69;1809451;78;21113;-64
2021/11/15 06:43:56;;;;;;;32.58;21.10;;;;;;;7.08;67.01;102075.58;1780462;78;21136;-64
2021/11/15 06:46:23;;;;;;;27.93;18.30;;;;;;;7.04;67.05;102076.59;1758645;79;21626;-64
2021/11/15 06:48:50;;;;;;;35.15;21.23;;;;;;;7.05;67.07;102079.15;1782259;78;21010;-64
2021/11/15 06:51:16;;;;;;;36.42;19.95;;;;;;;7.16;67.02;102072.64;1809267;77;21029;-66
2021/11/15 06:53:44;;;;;;;31.25;21.65;;;;;;;7.27;66.79;102077.48;1811949;77;21062;-67
2021/11/15 06:56:11;;;;;;;32.08;21.00;;;;;;;7.27;66.83;102083.56;1811155;77;21322;-65
2021/11/15 06:58:37;;;;;;;35.05;21.62;;;;;;;7.28;66.84;102078.73;1795386;77;21105;-66
2021/11/15 07:01:04;;;;;;;33.92;21.30;;;;;;;7.28;66.67;102087.90;1801846;77;21034;-67
2021/11/15 07:03:31;;;;;;;29.98;20.15;;;;;;;7.23;66.58;102088.06;1774628;78;21166;-65
2021/11/15 07:05:57;;;;;;;35.10;20.88;;;;;;;7.19;66.62;102091.70;1803080;78;21154;-68
2021/11/15 07:08:24;;;;;;;28.07;19.12;;;;;;;7.19;66.60;102095.63;1784972;78;21003;-66
2021/11/15 07:10:50;;;;;;;27.95;18.70;;;;;;;7.28;66.51;102099.69;1787517;79;21097;-64
2021/11/15 07:13:18;;;;;;;32.98;18.55;;;;;;;7.33;66.28;102100.35;1790481;78;21507;-64
2021/11/15 07:15:45;;;;;;;32.03;19.02;;;;;;;7.34;66.34;102104.66;1808452;77;21065;-64
2021/11/15 07:18:11;;;;;;;32.73;20.23;;;;;;;7.35;66.36;102109.47;1812082;77;21134;-64
2021/11/15 07:20:38;;;;;;;29.23;20.48;;;;;;;7.36;66.02;102113.77;1750854;80;21015;-63
2021/11/15 07:23:05;;;;;;;30.62;19.77;;;;;;;7.32;65.89;102124.83;1741805;79;21072;-66
2021/11/15 07:25:32;;;;;;;26.95;18.82;;;;;;;7.29;66.00;102120.16;1801808;77;21039;-65
2021/11/15 07:27:58;;;;;;;33.75;21.37;;;;;;;7.25;66.17;102132.52;1776479;78;21578;-66
2021/11/15 07:30:25;;;;;;;27.32;19.27;;;;;;;7.25;66.30;102130.75;1809814;78;21126;-62
2021/11/15 07:32:51;;;;;;;27.20;18.07;;;;;;;7.32;65.91;102130.06;1732918;80;21559;-62
2021/11/15 07:35:19;;;;;;;33.55;19.42;;;;;;;7.34;65.81;102134.77;1805567;77;21075;-64
2021/11/15 07:37:45;;;;;;;33.38;18.15;;;;;;;7.34;65.81;102134.77;1765882;78;21052;-65
2021/11/15 07:40:14;;;;;;;33.58;19.35;;;;;;;7.32;65.90;102135.77;1802550;78;21108;-65
2021/11/15 07:42:41;;;;;;;25.88;17.85;;;;;;;7.32;66.02;102139.69;1797029;78;21159;-64
2021/11/15 07:45:09;;;;;;;31.45;21.30;;;;;;;7.33;65.97;102142.25;1777409;78;21543;-64
2021/11/15 07:47:35;;;;;;;34.80;21.80;;;;;;;7.34;65.93;102150.48;1778899;78;21088;-65
2021/11/15 07:50:06;;;;;;;29.90;18.70;;;;;;;7.31;65.74;102144.52;1750945;78;20979;-67
2021/11/15 07:52:35;;;;;;;30.52;18.92;;;;;;;7.33;65.57;102153.16;1803092;77;20995;-63
2021/11/15 07:55:05;;;;;;;30.37;19.60;;;;;;;7.38;65.31;102153.41;1770576;80;21127;-64
2021/11/15 07:57:33;;;;;;;28.32;17.92;;;;;;;7.40;65.23;102158.59;1774594;79;21055;-65
2021/11/15 08:00:00;;;;;;;27.93;18.70;;;;;;;7.37;65.26;102155.61;1779532;79;21153;-64
2021/11/15 08:02:26;;;;;;;25.77;18.42;;;;;;;7.35;65.03;102152.67;1778718;79;21619;-62
2021/11/15 08:04:53;;;;;;;33.30;21.30;;;;;;;7.32;65.01;102154.94;1785882;78;21133;-63
2021/11/15 08:07:20;;;;;;;28.85;19.15;;;;;;;7.28;65.32;102155.98;1778828;78;21140;-63
2021/11/15 08:09:47;;;;;;;29.95;19.25;;;;;;;7.30;65.35;102157.23;1806106;77;21528;-63
2021/11/15 08:12:14;;;;;;;30.95;19.30;;;;;;;7.39;65.31;102165.56;1809480;77;20994;-63
2021/11/15 08:14:41;;;;;;;31.65;19.70;;;;;;;7.51;64.66;102168.17;1802454;77;21014;-64
2021/11/15 08:17:09;;;;;;;35.03;20.05;;;;;;;7.61;64.53;102173.45;1772623;78;21094;-65
2021/11/15 08:19:36;;;;;;;36.80;20.08;;;;;;;7.63;64.57;102176.89;1756654;80;21007;-64
2021/11/15 08:22:03;;;;;;;33.75;21.68;;;;;;;7.65;64.74;102182.50;1775237;80;21062;-62
2021/11/15 08:24:50;;;;;;;30.20;19.48;;;;;;;7.63;64.74;102184.75;1747104;80;21091;-62
2021/11/15 08:27:16;;;;;;;30.32;20.30;;;;;;;7.62;64.48;102183.03;1768578;79;21555;-64
2021/11/15 08:29:43;;;;;;;27.40;16.57;;;;;;;7.60;64.50;102188.79;1775638;79;20974;-63
2021/11/15 08:32:09;;;;;;;28.73;17.50;;;;;;;7.58;63.30;102193.67;1779534;78;21146;-62
2021/11/15 08:34:36;;;;;;;26.65;17.75;;;;;;;7.52;63.11;102192.16;1726084;80;20976;-63
2021/11/15 08:37:05;;;;;;;27.37;16.65;;;;;;;7.51;63.15;102194.83;1745558;78;21042;-63
2021/11/15 08:39:32;;;;;;;26.37;16.95;;;;;;;7.53;62.92;102191.69;1772917;79;20970;-66
2021/11/15 08:42:02;;;;;;;32.53;16.70;;;;;;;7.60;62.48;102194.50;1774936;79;20951;-63
2021/11/15 08:44:29;;;;;;;28.83;19.52;;;;;;;7.67;62.61;102202.51;1774437;79;21077;-63
2021/11/15 08:46:57;;;;;;;29.42;18.77;;;;;;;7.74;62.49;102201.81;1769628;80;21047;-64
2021/11/15 08:49:27;;;;;;;26.68;17.67;;;;;;;7.78;62.12;102200.77;1786559;80;21041;-64
2021/11/15 08:51:55;;;;;;;26.62;16.30;;;;;;;7.79;62.03;102209.87;1733492;80;21011;-62
2021/11/15 08:54:22;;;;;;;26.70;17.80;;;;;;;7.80;61.98;102207.67;1771357;79;21078;-62
2021/11/15 08:56:53;;;;;;;25.50;18.55;;;;;;;7.86;61.63;102198.70;1749233;80;21062;-64
2021/11/15 08:59:20;;;;;;;30.70;18.12;;;;;;;7.87;61.52;102199.55;1769310;80;21058;-67
2021/11/15 09:01:47;;;;;;;26.55;16.75;;;;;;;7.86;61.27;102202.63;1735632;80;21108;-64
2021/11/15 09:04:14;;;;;;;23.98;16.52;;;;;;;7.87;61.33;102203.47;1750641;80;21073;-64
2021/11/15 09:06:40;;;;;;;23.55;16.80;;;;;;;7.90;61.36;102201.61;1772426;80;21043;-64
2021/11/15 09:09:11;;;;;;;28.45;16.70;;;;;;;7.92;61.07;102205.02;1765685;79;21566;-64
2021/11/15 09:11:37;;;;;;;31.37;16.90;;;;;;;7.92;60.48;102201.09;1766403;80;21121;-65
2021/11/15 09:14:03;;;;;;;23.02;15.38;;;;;;;7.90;60.36;102204.23;1770542;79;21042;-65
2021/11/15 09:16:30;;;;;;;32.75;17.40;;;;;;;7.89;60.34;102207.75;1768852;80;21091;-66
2021/11/15 09:18:56;;;;;;;27.62;16.10;;;;;;;7.99;60.07;102201.23;1738250;80;21572;-65
2021/11/15 09:21:23;;;;;;;24.20;15.08;;;;;;;8.09;59.47;102198.25;1762545;80;21103;-64
2021/11/15 09:23:49;;;;;;;24.63;14.85;;;;;;;8.14;59.02;102194.98;1767132;80;21442;-65
2021/11/15 09:26:18;;;;;;;26.27;15.35;;;;;;;8.17;58.15;102207.98;1766218;80;21104;-65
2021/11/15 09:28:45;;;;;;;25.70;15.68;;;;;;;8.14;58.07;102210.25;1775633;80;21030;-64
2021/11/15 09:31:11;;;;;;;23.50;14.90;;;;;;;8.08;58.20;102208.33;1747353;80;21030;-64
2021/11/15 09:33:38;;;;;;;22.40;15.55;;;;;;;8.03;58.01;102208.51;1763981;80;21528;-65
2021/11/15 09:36:05;;;;;;;22.22;14.03;;;;;;;7.98;57.81;102210.03;1763360;80;21034;-65
2021/11/15 09:38:31;;;;;;;24.25;14.33;;;;;;;7.96;57.82;102208.37;1741128;80;22331;-65
2021/11/15 09:41:02;;;;;;;22.30;14.38;;;;;;;7.92;57.43;102210.73;1761706;79;21058;-65
2021/11/15 09:43:37;;;;;;;26.15;16.25;;;;;;;7.84;57.31;102218.03;1768134;79;21050;-64
2021/11/15 09:46:10;;;;;;;26.93;17.80;;;;;;;7.75;57.80;102216.60;1741994;79;21476;-64
2021/11/15 09:48:41;;;;;;;24.60;16.80;;;;;;;7.74;58.07;102217.53;1755114;79;21050;-65
2021/11/15 09:51:07;;;;;;;28.55;16.70;;;;;;;7.72;58.49;102216.28;1726628;81;22335;-65
2021/11/15 09:53:35;;;;;;;25.68;17.12;;;;;;;7.74;58.70;102216.23;1751220;81;21049;-65
2021/11/15 09:56:56;;;;;;;27.30;17.55;;;;;;;7.81;58.58;102213.75;1793538;78;22564;-66
2021/11/15 09:59:25;;;;;;;30.50;17.12;;;;;;;7.80;58.49;102218.16;1769013;80;21035;-64
2021/11/15 10:02:38;;;;;;;30.48;18.05;;;;;;;7.81;59.09;102222.92;1793384;78;22690;-65
2021/11/15 10:06:30;;;;;;;22.17;16.12;;;;;;;7.92;59.11;102233.01;1798691;77;21795;-65
2021/11/15 10:11:11;;;;;;;32.05;20.12;;;;;;;7.87;59.21;102234.49;1792657;78;22708;-63
2021/11/15 10:13:40;;;;;;;25.80;17.48;;;;;;;7.80;59.33;102241.73;1736571;80;21043;-64
2021/11/15 10:16:14;;;;;;;33.15;19.55;;;;;;;7.80;59.33;102246.10;1773355;80;21043;-66
2021/11/15 10:18:50;;;;;;;26.70;16.73;;;;;;;7.78;59.33;102250.13;1763719;80;21491;-67
2021/11/15 10:21:26;;;;;;;39.27;19.27;;;;;;;7.71;59.55;102254.34;1712856;82;21070;-60
2021/11/15 10:23:57;;;;;;;30.57;18.73;;;;;;;7.65;59.55;102263.72;1719557;81;20916;-63
2021/11/15 10:26:46;;;;;;;27.05;17.07;;;;;;;7.58;59.80;102263.98;1731111;81;20932;-63
2021/11/15 10:29:22;;;;;;;28.25;16.97;;;;;;;7.54;60.13;102267.61;1705410;82;21153;-65
2021/11/15 10:32:02;;;;;;;25.43;16.62;;;;;;;7.54;60.12;102262.83;1713877;82;21008;-64
2021/11/15 10:34:38;;;;;;;31.42;17.62;;;;;;;7.53;59.69;102265.92;1717451;82;21054;-64
2021/11/15 10:37:22;;;;;;;25.37;16.82;;;;;;;7.47;59.88;102273.98;1717606;82;21686;-63
2021/11/15 10:40:07;;;;;;;28.50;16.75;;;;;;;7.46;60.11;102277.97;1720079;82;21135;-64
2021/11/15 10:42:39;;;;;;;23.07;15.18;;;;;;;7.50;60.22;102279.55;1716130;82;21146;-65
2021/11/15 10:45:15;;;;;;;28.10;17.27;;;;;;;7.65;59.84;102286.00;1715763;82;21109;-65
2021/11/15 10:47:45;;;;;;;22.80;14.23;;;;;;;7.73;59.42;102291.81;1738783;80;21055;-64
2021/11/15 10:50:34;;;;;;;25.00;15.10;;;;;;;7.65;59.19;102291.23;1707923;82;21114;-63
2021/11/15 10:53:11;;;;;;;25.50;14.85;;;;;;;7.57;59.25;102291.54;1686613;83;21007;-62
2021/11/15 10:55:51;;;;;;;24.67;14.43;;;;;;;7.51;59.71;102297.84;1717015;81;21094;-63
2021/11/15 10:58:18;;;;;;;20.60;13.90;;;;;;;7.55;59.55;102297.30;1731100;80;21698;-63
2021/11/15 11:00:58;;;;;;;22.32;15.15;;;;;;;7.51;59.22;102312.71;1716511;81;20995;-63
2021/11/15 11:03:18;;;;;;;21.17;14.07;;;;;;;7.35;59.58;102309.34;1684085;81;21093;-64
2021/11/15 11:05:52;;;;;;;21.95;13.40;;;;;;;7.23;59.99;102305.39;1705069;82;21118;-63
2021/11/15 11:08:26;;;;;;;21.68;14.45;;;;;;;7.12;60.28;102305.37;1736510;80;21155;-65
2021/11/15 11:11:08;;;;;;;22.95;14.40;;;;;;;6.98;60.18;102315.02;1708061;82;21573;-67
2021/11/15 11:13:58;;;;;;;21.45;13.83;;;;;;;6.81;60.78;102312.50;1700453;83;21606;-64
2021/11/15 11:16:49;;;;;;;21.48;14.03;;;;;;;6.68;61.25;102319.05;1676841;83;21142;-63
2021/11/15 11:27:14;;;;;;;26.05;14.93;;;;;;;6.47;62.21;102316.66;1703258;82;21136;-62
2021/11/15 11:29:49;;;;;;;28.70;14.13;;;;;;;6.38;62.20;102323.03;1723085;80;21051;-64
2021/11/15 11:32:21;;;;;;;26.23;13.55;;;;;;;6.29;62.49;102323.34;1754417;80;21079;-64
2021/11/15 11:34:50;;;;;;;21.77;13.00;;;;;;;6.22;62.28;102324.41;1753081;80;21100;-63
2021/11/15 11:37:18;;;;;;;25.80;14.25;;;;;;;6.13;62.38;102322.48;1750878;80;21043;-62